TAF and METAR

METAR for Iwo Jima Air Base

RJAW 290300Z 26013KT 9999 FEW010 BKN150 BKN230 28/24 Q1012 RMK 1CU010 5AC150 A2991
Report created 29. mai 05:00
wind 13 knots from W (260°) visibility > 10km some clouds (~25% cover) at 1000 feet broken clouds (~75% cover) at 15000 feet broken clouds (~75% cover) at 23000 feet Temperature 28° with dewpoint at 24° (Humidity 78.97%) Pressure 1012 hPa
No TAF available for Iwo Jima Air Base